Cropseyville, New York
Current Conditions -  °F | °C
As of 7:51 PM on Monday 22 Dec 2014 (Local Time) from KALB Reporting Station
Overcast Overcast  
Wind Chill: 34°   Ceiling: 4000
Heat Index: 34°   Visibility: 10mi
Dew Point: 27°   Wind: 3mph
Humidity: 75%   Direction: 350°N
Pressure: 30.28"   Gusts: NA
Location:  42.75°N, 73.56°W
Report Text: KALB 230051Z 35003KT 10SM FEW030 BKN040 OVC050 01/M03 A3028 RMK AO2 SLP255 T00111028
Loading
Personal Weather Stations






























Interactive Weather Map New forecast layout! Learn more

10-Day Weather Forecast

Advertisements
Track Severe Weather on mobile